sensor_id;sensor_type;location;lat;lon;timestamp;P1;durP1;ratioP1;P2;durP2;ratioP2
29218;SDS011;16421;50.202;7.852;2022-09-20T00:04:14;0.90;;;0.68;;
29218;SDS011;16421;50.202;7.852;2022-09-20T00:09:17;1.38;;;0.75;;
29218;SDS011;16421;50.202;7.852;2022-09-20T00:14:22;0.77;;;0.73;;
29218;SDS011;16421;50.202;7.852;2022-09-20T00:19:25;3.05;;;0.73;;
29218;SDS011;16421;50.202;7.852;2022-09-20T00:24:28;2.58;;;0.60;;
29218;SDS011;16421;50.202;7.852;2022-09-20T00:29:33;4.05;;;0.60;;
29218;SDS011;16421;50.202;7.852;2022-09-20T00:34:36;1.20;;;0.63;;
29218;SDS011;16421;50.202;7.852;2022-09-20T00:39:57;0.80;;;0.60;;
29218;SDS011;16421;50.202;7.852;2022-09-20T00:45:03;3.90;;;0.98;;
29218;SDS011;16421;50.202;7.852;2022-09-20T00:55:16;1.27;;;0.73;;
29218;SDS011;16421;50.202;7.852;2022-09-20T01:00:22;1.77;;;0.57;;
29218;SDS011;16421;50.202;7.852;2022-09-20T01:05:27;0.60;;;0.55;;
29218;SDS011;16421;50.202;7.852;2022-09-20T01:10:30;1.92;;;0.73;;
29218;SDS011;16421;50.202;7.852;2022-09-20T01:15:36;2.83;;;1.05;;
29218;SDS011;16421;50.202;7.852;2022-09-20T01:20:40;1.58;;;0.77;;
29218;SDS011;16421;50.202;7.852;2022-09-20T01:25:50;1.88;;;1.05;;
29218;SDS011;16421;50.202;7.852;2022-09-20T01:31:27;1.67;;;0.77;;
29218;SDS011;16421;50.202;7.852;2022-09-20T01:36:37;3.80;;;1.00;;
29218;SDS011;16421;50.202;7.852;2022-09-20T01:41:46;1.45;;;0.70;;
29218;SDS011;16421;50.202;7.852;2022-09-20T01:46:59;1.15;;;0.82;;
29218;SDS011;16421;50.202;7.852;2022-09-20T01:57:44;1.83;;;0.90;;
29218;SDS011;16421;50.202;7.852;2022-09-20T02:03:16;2.33;;;0.88;;
29218;SDS011;16421;50.202;7.852;2022-09-20T02:08:38;1.23;;;0.75;;
29218;SDS011;16421;50.202;7.852;2022-09-20T02:14:04;2.50;;;0.80;;
29218;SDS011;16421;50.202;7.852;2022-09-20T02:25:01;2.63;;;0.75;;
29218;SDS011;16421;50.202;7.852;2022-09-20T02:30:15;1.08;;;0.65;;
29218;SDS011;16421;50.202;7.852;2022-09-20T02:35:31;1.75;;;0.70;;
29218;SDS011;16421;50.202;7.852;2022-09-20T02:40:55;1.63;;;0.90;;
29218;SDS011;16421;50.202;7.852;2022-09-20T02:46:17;0.82;;;0.70;;
29218;SDS011;16421;50.202;7.852;2022-09-20T02:51:27;2.60;;;0.80;;
29218;SDS011;16421;50.202;7.852;2022-09-20T02:56:37;1.60;;;0.80;;
29218;SDS011;16421;50.202;7.852;2022-09-20T03:01:49;0.70;;;0.70;;
29218;SDS011;16421;50.202;7.852;2022-09-20T03:07:03;1.23;;;0.80;;
29218;SDS011;16421;50.202;7.852;2022-09-20T03:12:16;0.55;;;0.50;;
29218;SDS011;16421;50.202;7.852;2022-09-20T03:17:29;0.65;;;0.60;;
29218;SDS011;16421;50.202;7.852;2022-09-20T03:22:40;3.50;;;0.70;;
29218;SDS011;16421;50.202;7.852;2022-09-20T03:27:57;0.68;;;0.68;;
29218;SDS011;16421;50.202;7.852;2022-09-20T03:33:11;1.77;;;0.88;;
29218;SDS011;16421;50.202;7.852;2022-09-20T03:38:24;3.08;;;0.90;;
29218;SDS011;16421;50.202;7.852;2022-09-20T03:43:44;0.77;;;0.50;;
29218;SDS011;16421;50.202;7.852;2022-09-20T03:49:18;1.65;;;0.90;;
29218;SDS011;16421;50.202;7.852;2022-09-20T04:00:21;1.20;;;0.82;;
29218;SDS011;16421;50.202;7.852;2022-09-20T04:05:29;1.95;;;0.90;;
29218;SDS011;16421;50.202;7.852;2022-09-20T04:10:44;2.05;;;0.93;;
29218;SDS011;16421;50.202;7.852;2022-09-20T04:16:02;0.80;;;0.75;;
29218;SDS011;16421;50.202;7.852;2022-09-20T04:21:18;2.60;;;1.10;;
29218;SDS011;16421;50.202;7.852;2022-09-20T04:26:32;1.55;;;0.85;;
29218;SDS011;16421;50.202;7.852;2022-09-20T04:31:40;1.10;;;0.90;;
29218;SDS011;16421;50.202;7.852;2022-09-20T04:36:55;2.42;;;0.90;;
29218;SDS011;16421;50.202;7.852;2022-09-20T04:42:20;1.20;;;0.73;;
29218;SDS011;16421;50.202;7.852;2022-09-20T04:53:20;1.38;;;0.75;;
29218;SDS011;16421;50.202;7.852;2022-09-20T04:58:50;3.20;;;1.10;;
29218;SDS011;16421;50.202;7.852;2022-09-20T05:04:21;1.73;;;0.80;;
29218;SDS011;16421;50.202;7.852;2022-09-20T05:09:51;1.17;;;0.90;;
29218;SDS011;16421;50.202;7.852;2022-09-20T05:15:33;2.45;;;1.10;;
29218;SDS011;16421;50.202;7.852;2022-09-20T05:20:50;1.83;;;0.98;;
29218;SDS011;16421;50.202;7.852;2022-09-20T05:26:06;2.03;;;1.00;;
29218;SDS011;16421;50.202;7.852;2022-09-20T05:31:15;2.22;;;1.02;;
29218;SDS011;16421;50.202;7.852;2022-09-20T05:36:25;2.88;;;1.00;;
29218;SDS011;16421;50.202;7.852;2022-09-20T05:41:39;1.33;;;0.93;;
29218;SDS011;16421;50.202;7.852;2022-09-20T05:46:52;1.63;;;1.00;;
29218;SDS011;16421;50.202;7.852;2022-09-20T05:52:08;3.03;;;1.40;;
29218;SDS011;16421;50.202;7.852;2022-09-20T05:57:24;1.88;;;1.33;;
29218;SDS011;16421;50.202;7.852;2022-09-20T06:02:39;2.90;;;1.17;;
29218;SDS011;16421;50.202;7.852;2022-09-20T06:07:58;3.28;;;1.80;;
29218;SDS011;16421;50.202;7.852;2022-09-20T06:13:22;2.92;;;1.77;;
29218;SDS011;16421;50.202;7.852;2022-09-20T06:18:39;2.78;;;1.42;;
29218;SDS011;16421;50.202;7.852;2022-09-20T06:23:49;2.67;;;1.08;;
29218;SDS011;16421;50.202;7.852;2022-09-20T06:28:53;2.22;;;1.20;;
29218;SDS011;16421;50.202;7.852;2022-09-20T06:34:02;2.20;;;1.02;;
29218;SDS011;16421;50.202;7.852;2022-09-20T06:39:11;1.65;;;0.90;;
29218;SDS011;16421;50.202;7.852;2022-09-20T06:44:43;2.20;;;1.08;;
29218;SDS011;16421;50.202;7.852;2022-09-20T06:49:48;1.70;;;1.40;;
29218;SDS011;16421;50.202;7.852;2022-09-20T06:54:52;3.45;;;1.10;;
29218;SDS011;16421;50.202;7.852;2022-09-20T06:59:59;1.98;;;1.02;;
29218;SDS011;16421;50.202;7.852;2022-09-20T07:05:05;3.50;;;1.30;;
29218;SDS011;16421;50.202;7.852;2022-09-20T07:10:12;4.93;;;1.85;;
29218;SDS011;16421;50.202;7.852;2022-09-20T07:15:17;10.57;;;2.22;;
29218;SDS011;16421;50.202;7.852;2022-09-20T07:20:26;5.03;;;1.40;;
29218;SDS011;16421;50.202;7.852;2022-09-20T07:25:30;2.78;;;1.08;;
29218;SDS011;16421;50.202;7.852;2022-09-20T07:30:33;4.00;;;1.50;;
29218;SDS011;16421;50.202;7.852;2022-09-20T07:35:38;2.55;;;0.90;;
29218;SDS011;16421;50.202;7.852;2022-09-20T07:40:42;2.83;;;1.05;;
29218;SDS011;16421;50.202;7.852;2022-09-20T07:45:48;2.53;;;1.30;;
29218;SDS011;16421;50.202;7.852;2022-09-20T07:50:58;2.40;;;1.15;;
29218;SDS011;16421;50.202;7.852;2022-09-20T07:56:06;2.83;;;1.27;;
29218;SDS011;16421;50.202;7.852;2022-09-20T08:01:11;2.30;;;1.10;;
29218;SDS011;16421;50.202;7.852;2022-09-20T08:06:16;2.05;;;0.85;;
29218;SDS011;16421;50.202;7.852;2022-09-20T08:11:22;3.88;;;2.00;;
29218;SDS011;16421;50.202;7.852;2022-09-20T08:16:29;4.82;;;2.20;;
29218;SDS011;16421;50.202;7.852;2022-09-20T08:21:34;2.75;;;1.63;;
29218;SDS011;16421;50.202;7.852;2022-09-20T08:26:39;2.10;;;1.23;;
29218;SDS011;16421;50.202;7.852;2022-09-20T08:31:43;5.50;;;2.72;;
29218;SDS011;16421;50.202;7.852;2022-09-20T08:36:50;4.22;;;1.85;;
29218;SDS011;16421;50.202;7.852;2022-09-20T08:41:57;3.65;;;1.35;;
29218;SDS011;16421;50.202;7.852;2022-09-20T08:47:11;2.20;;;0.82;;
29218;SDS011;16421;50.202;7.852;2022-09-20T08:52:24;3.67;;;1.50;;
29218;SDS011;16421;50.202;7.852;2022-09-20T08:57:36;2.17;;;1.10;;
29218;SDS011;16421;50.202;7.852;2022-09-20T09:02:40;6.15;;;1.73;;
29218;SDS011;16421;50.202;7.852;2022-09-20T09:07:45;4.65;;;1.20;;
29218;SDS011;16421;50.202;7.852;2022-09-20T09:12:48;4.03;;;1.60;;
29218;SDS011;16421;50.202;7.852;2022-09-20T09:17:53;5.05;;;1.92;;
29218;SDS011;16421;50.202;7.852;2022-09-20T09:23:01;2.55;;;0.95;;
29218;SDS011;16421;50.202;7.852;2022-09-20T09:28:11;2.63;;;0.90;;
29218;SDS011;16421;50.202;7.852;2022-09-20T09:33:25;2.33;;;1.30;;
29218;SDS011;16421;50.202;7.852;2022-09-20T09:38:34;4.80;;;1.20;;
29218;SDS011;16421;50.202;7.852;2022-09-20T09:43:39;2.95;;;1.80;;
29218;SDS011;16421;50.202;7.852;2022-09-20T09:48:42;3.67;;;1.70;;
29218;SDS011;16421;50.202;7.852;2022-09-20T09:53:51;5.90;;;2.45;;
29218;SDS011;16421;50.202;7.852;2022-09-20T09:59:02;2.97;;;1.40;;
29218;SDS011;16421;50.202;7.852;2022-09-20T10:04:21;3.05;;;1.63;;
29218;SDS011;16421;50.202;7.852;2022-09-20T10:09:35;4.68;;;2.10;;
29218;SDS011;16421;50.202;7.852;2022-09-20T10:14:58;4.13;;;1.60;;
29218;SDS011;16421;50.202;7.852;2022-09-20T10:20:14;2.35;;;1.52;;
29218;SDS011;16421;50.202;7.852;2022-09-20T10:25:42;1.83;;;0.82;;
29218;SDS011;16421;50.202;7.852;2022-09-20T10:30:53;1.73;;;1.05;;
29218;SDS011;16421;50.202;7.852;2022-09-20T10:36:05;1.75;;;0.80;;
29218;SDS011;16421;50.202;7.852;2022-09-20T10:41:21;0.95;;;0.63;;
29218;SDS011;16421;50.202;7.852;2022-09-20T10:46:55;1.77;;;0.70;;
29218;SDS011;16421;50.202;7.852;2022-09-20T10:52:22;2.83;;;1.50;;
29218;SDS011;16421;50.202;7.852;2022-09-20T11:03:20;2.55;;;1.13;;
29218;SDS011;16421;50.202;7.852;2022-09-20T11:08:33;2.58;;;0.73;;
29218;SDS011;16421;50.202;7.852;2022-09-20T11:13:39;1.88;;;0.80;;
29218;SDS011;16421;50.202;7.852;2022-09-20T11:18:49;3.05;;;0.88;;
29218;SDS011;16421;50.202;7.852;2022-09-20T11:24:00;3.90;;;1.05;;
29218;SDS011;16421;50.202;7.852;2022-09-20T11:29:07;2.25;;;0.70;;
29218;SDS011;16421;50.202;7.852;2022-09-20T11:34:19;1.48;;;0.52;;
29218;SDS011;16421;50.202;7.852;2022-09-20T11:39:29;2.85;;;0.95;;
29218;SDS011;16421;50.202;7.852;2022-09-20T11:44:40;1.27;;;0.43;;
29218;SDS011;16421;50.202;7.852;2022-09-20T11:49:47;2.00;;;0.70;;
29218;SDS011;16421;50.202;7.852;2022-09-20T12:00:35;2.63;;;0.85;;
29218;SDS011;16421;50.202;7.852;2022-09-20T12:05:43;2.28;;;0.70;;
29218;SDS011;16421;50.202;7.852;2022-09-20T12:10:52;1.30;;;0.80;;
29218;SDS011;16421;50.202;7.852;2022-09-20T12:16:05;1.70;;;0.63;;
29218;SDS011;16421;50.202;7.852;2022-09-20T12:21:12;0.53;;;0.47;;
29218;SDS011;16421;50.202;7.852;2022-09-20T12:31:46;0.57;;;0.52;;
29218;SDS011;16421;50.202;7.852;2022-09-20T12:42:26;0.80;;;0.50;;
29218;SDS011;16421;50.202;7.852;2022-09-20T12:47:32;0.60;;;0.43;;
29218;SDS011;16421;50.202;7.852;2022-09-20T12:52:53;0.80;;;0.60;;
29218;SDS011;16421;50.202;7.852;2022-09-20T12:57:59;3.13;;;0.70;;
29218;SDS011;16421;50.202;7.852;2022-09-20T13:03:09;3.10;;;1.30;;
29218;SDS011;16421;50.202;7.852;2022-09-20T13:08:26;1.48;;;0.60;;
29218;SDS011;16421;50.202;7.852;2022-09-20T13:13:31;3.08;;;0.50;;
29218;SDS011;16421;50.202;7.852;2022-09-20T13:18:37;0.55;;;0.40;;
29218;SDS011;16421;50.202;7.852;2022-09-20T13:23:45;1.92;;;0.50;;
29218;SDS011;16421;50.202;7.852;2022-09-20T13:28:53;1.45;;;0.43;;
29218;SDS011;16421;50.202;7.852;2022-09-20T13:34:13;1.77;;;0.77;;
29218;SDS011;16421;50.202;7.852;2022-09-20T13:39:26;0.75;;;0.30;;
29218;SDS011;16421;50.202;7.852;2022-09-20T13:44:37;0.57;;;0.20;;
29218;SDS011;16421;50.202;7.852;2022-09-20T13:49:41;0.43;;;0.30;;
29218;SDS011;16421;50.202;7.852;2022-09-20T13:54:46;0.40;;;0.20;;
29218;SDS011;16421;50.202;7.852;2022-09-20T13:59:49;0.30;;;0.20;;
29218;SDS011;16421;50.202;7.852;2022-09-20T14:04:54;0.77;;;0.35;;
29218;SDS011;16421;50.202;7.852;2022-09-20T14:10:02;0.80;;;0.30;;
29218;SDS011;16421;50.202;7.852;2022-09-20T14:15:06;2.53;;;0.70;;
29218;SDS011;16421;50.202;7.852;2022-09-20T14:20:12;2.10;;;0.30;;
29218;SDS011;16421;50.202;7.852;2022-09-20T14:25:22;3.17;;;0.80;;
29218;SDS011;16421;50.202;7.852;2022-09-20T14:30:27;1.15;;;0.50;;
29218;SDS011;16421;50.202;7.852;2022-09-20T14:35:32;3.75;;;1.23;;
29218;SDS011;16421;50.202;7.852;2022-09-20T14:40:43;3.40;;;0.80;;
29218;SDS011;16421;50.202;7.852;2022-09-20T14:45:50;3.63;;;1.02;;
29218;SDS011;16421;50.202;7.852;2022-09-20T14:51:07;3.22;;;0.68;;
29218;SDS011;16421;50.202;7.852;2022-09-20T14:56:16;2.35;;;0.90;;
29218;SDS011;16421;50.202;7.852;2022-09-20T15:01:28;4.22;;;0.90;;
29218;SDS011;16421;50.202;7.852;2022-09-20T15:06:33;2.83;;;0.80;;
29218;SDS011;16421;50.202;7.852;2022-09-20T15:11:38;1.13;;;0.50;;
29218;SDS011;16421;50.202;7.852;2022-09-20T15:16:42;4.70;;;1.40;;
29218;SDS011;16421;50.202;7.852;2022-09-20T15:21:45;2.80;;;0.90;;
29218;SDS011;16421;50.202;7.852;2022-09-20T15:26:53;2.97;;;1.20;;
29218;SDS011;16421;50.202;7.852;2022-09-20T15:31:56;3.55;;;0.80;;
29218;SDS011;16421;50.202;7.852;2022-09-20T15:36:59;1.52;;;0.50;;
29218;SDS011;16421;50.202;7.852;2022-09-20T15:42:04;1.23;;;0.50;;
29218;SDS011;16421;50.202;7.852;2022-09-20T15:47:10;2.63;;;0.47;;
29218;SDS011;16421;50.202;7.852;2022-09-20T15:52:16;1.70;;;0.43;;
29218;SDS011;16421;50.202;7.852;2022-09-20T15:57:27;0.90;;;0.55;;
29218;SDS011;16421;50.202;7.852;2022-09-20T16:02:30;0.88;;;0.55;;
29218;SDS011;16421;50.202;7.852;2022-09-20T16:07:36;2.40;;;0.50;;
29218;SDS011;16421;50.202;7.852;2022-09-20T16:12:41;0.65;;;0.30;;
29218;SDS011;16421;50.202;7.852;2022-09-20T16:17:44;1.67;;;0.50;;
29218;SDS011;16421;50.202;7.852;2022-09-20T16:23:05;3.08;;;1.00;;
29218;SDS011;16421;50.202;7.852;2022-09-20T16:28:10;2.05;;;0.60;;
29218;SDS011;16421;50.202;7.852;2022-09-20T16:33:14;4.85;;;1.95;;
29218;SDS011;16421;50.202;7.852;2022-09-20T16:38:18;2.42;;;1.20;;
29218;SDS011;16421;50.202;7.852;2022-09-20T16:43:23;2.58;;;0.80;;
29218;SDS011;16421;50.202;7.852;2022-09-20T16:48:27;3.47;;;0.93;;
29218;SDS011;16421;50.202;7.852;2022-09-20T16:53:31;2.10;;;0.60;;
29218;SDS011;16421;50.202;7.852;2022-09-20T16:58:36;2.00;;;0.80;;
29218;SDS011;16421;50.202;7.852;2022-09-20T17:03:39;2.15;;;1.05;;
29218;SDS011;16421;50.202;7.852;2022-09-20T17:08:43;1.05;;;0.68;;
29218;SDS011;16421;50.202;7.852;2022-09-20T17:13:48;2.05;;;0.70;;
29218;SDS011;16421;50.202;7.852;2022-09-20T17:18:53;3.22;;;1.10;;
29218;SDS011;16421;50.202;7.852;2022-09-20T17:23:58;1.50;;;1.00;;
29218;SDS011;16421;50.202;7.852;2022-09-20T17:29:03;2.72;;;1.65;;
29218;SDS011;16421;50.202;7.852;2022-09-20T17:34:09;2.63;;;1.15;;
29218;SDS011;16421;50.202;7.852;2022-09-20T17:39:13;4.90;;;1.48;;
29218;SDS011;16421;50.202;7.852;2022-09-20T17:44:19;3.53;;;1.48;;
29218;SDS011;16421;50.202;7.852;2022-09-20T17:49:22;3.75;;;1.55;;
29218;SDS011;16421;50.202;7.852;2022-09-20T17:54:27;2.42;;;1.25;;
29218;SDS011;16421;50.202;7.852;2022-09-20T17:59:32;3.58;;;1.40;;
29218;SDS011;16421;50.202;7.852;2022-09-20T18:04:36;2.63;;;1.30;;
29218;SDS011;16421;50.202;7.852;2022-09-20T18:09:40;4.18;;;1.52;;
29218;SDS011;16421;50.202;7.852;2022-09-20T18:14:47;3.45;;;1.70;;
29218;SDS011;16421;50.202;7.852;2022-09-20T18:19:50;2.28;;;1.58;;
29218;SDS011;16421;50.202;7.852;2022-09-20T18:24:54;2.03;;;1.45;;
29218;SDS011;16421;50.202;7.852;2022-09-20T18:29:58;3.05;;;1.60;;
29218;SDS011;16421;50.202;7.852;2022-09-20T18:35:02;2.03;;;1.30;;
29218;SDS011;16421;50.202;7.852;2022-09-20T18:40:06;3.25;;;1.90;;
29218;SDS011;16421;50.202;7.852;2022-09-20T18:45:13;2.72;;;1.63;;
29218;SDS011;16421;50.202;7.852;2022-09-20T18:50:22;2.38;;;1.70;;
29218;SDS011;16421;50.202;7.852;2022-09-20T18:55:26;2.72;;;1.63;;
29218;SDS011;16421;50.202;7.852;2022-09-20T19:00:32;4.35;;;1.70;;
29218;SDS011;16421;50.202;7.852;2022-09-20T19:05:35;2.83;;;2.00;;
29218;SDS011;16421;50.202;7.852;2022-09-20T19:10:58;3.78;;;1.85;;
29218;SDS011;16421;50.202;7.852;2022-09-20T19:16:10;2.85;;;1.73;;
29218;SDS011;16421;50.202;7.852;2022-09-20T19:24:54;2.80;;;2.00;;
29218;SDS011;16421;50.202;7.852;2022-09-20T19:30:13;2.28;;;1.65;;
29218;SDS011;16421;50.202;7.852;2022-09-20T19:35:23;3.17;;;1.60;;
29218;SDS011;16421;50.202;7.852;2022-09-20T19:40:36;2.45;;;1.52;;
29218;SDS011;16421;50.202;7.852;2022-09-20T19:45:46;4.80;;;1.67;;
29218;SDS011;16421;50.202;7.852;2022-09-20T19:50:57;4.05;;;1.70;;
29218;SDS011;16421;50.202;7.852;2022-09-20T19:56:20;3.05;;;1.50;;
29218;SDS011;16421;50.202;7.852;2022-09-20T20:01:26;2.08;;;1.38;;
29218;SDS011;16421;50.202;7.852;2022-09-20T20:06:31;2.72;;;1.55;;
29218;SDS011;16421;50.202;7.852;2022-09-20T20:11:39;4.13;;;1.95;;
29218;SDS011;16421;50.202;7.852;2022-09-20T20:16:54;2.70;;;1.63;;
29218;SDS011;16421;50.202;7.852;2022-09-20T20:22:07;3.42;;;1.70;;
29218;SDS011;16421;50.202;7.852;2022-09-20T20:27:20;1.80;;;1.48;;
29218;SDS011;16421;50.202;7.852;2022-09-20T20:32:25;2.30;;;1.80;;
29218;SDS011;16421;50.202;7.852;2022-09-20T20:37:28;1.45;;;1.30;;
29218;SDS011;16421;50.202;7.852;2022-09-20T20:42:33;1.90;;;1.10;;
29218;SDS011;16421;50.202;7.852;2022-09-20T20:47:37;3.47;;;1.35;;
29218;SDS011;16421;50.202;7.852;2022-09-20T20:52:42;2.63;;;1.77;;
29218;SDS011;16421;50.202;7.852;2022-09-20T20:57:51;4.43;;;1.73;;
29218;SDS011;16421;50.202;7.852;2022-09-20T21:02:57;2.58;;;1.95;;
29218;SDS011;16421;50.202;7.852;2022-09-20T21:08:02;4.20;;;2.38;;
29218;SDS011;16421;50.202;7.852;2022-09-20T21:13:06;3.72;;;2.38;;
29218;SDS011;16421;50.202;7.852;2022-09-20T21:18:09;3.92;;;2.20;;
29218;SDS011;16421;50.202;7.852;2022-09-20T21:23:15;3.47;;;2.00;;
29218;SDS011;16421;50.202;7.852;2022-09-20T21:28:20;4.03;;;2.03;;
29218;SDS011;16421;50.202;7.852;2022-09-20T21:33:23;2.35;;;1.70;;
29218;SDS011;16421;50.202;7.852;2022-09-20T21:38:26;4.10;;;2.05;;
29218;SDS011;16421;50.202;7.852;2022-09-20T21:43:34;3.60;;;2.03;;
29218;SDS011;16421;50.202;7.852;2022-09-20T21:48:40;5.35;;;3.03;;
29218;SDS011;16421;50.202;7.852;2022-09-20T21:53:44;4.75;;;2.58;;
29218;SDS011;16421;50.202;7.852;2022-09-20T21:58:49;2.90;;;2.00;;
29218;SDS011;16421;50.202;7.852;2022-09-20T22:03:53;4.30;;;2.05;;
29218;SDS011;16421;50.202;7.852;2022-09-20T22:09:00;2.38;;;1.50;;
29218;SDS011;16421;50.202;7.852;2022-09-20T22:14:05;2.28;;;1.40;;
29218;SDS011;16421;50.202;7.852;2022-09-20T22:19:13;2.42;;;1.48;;
29218;SDS011;16421;50.202;7.852;2022-09-20T22:24:18;2.38;;;1.42;;
29218;SDS011;16421;50.202;7.852;2022-09-20T22:29:22;1.13;;;0.93;;
29218;SDS011;16421;50.202;7.852;2022-09-20T22:34:26;1.13;;;1.02;;
29218;SDS011;16421;50.202;7.852;2022-09-20T22:39:29;1.45;;;1.00;;
29218;SDS011;16421;50.202;7.852;2022-09-20T22:44:34;2.70;;;1.10;;
29218;SDS011;16421;50.202;7.852;2022-09-20T22:54:42;3.53;;;1.33;;
29218;SDS011;16421;50.202;7.852;2022-09-20T22:59:48;2.30;;;0.77;;
29218;SDS011;16421;50.202;7.852;2022-09-20T23:04:51;1.58;;;1.42;;
29218;SDS011;16421;50.202;7.852;2022-09-20T23:09:54;1.10;;;1.00;;
29218;SDS011;16421;50.202;7.852;2022-09-20T23:14:59;1.63;;;0.95;;
29218;SDS011;16421;50.202;7.852;2022-09-20T23:20:02;1.73;;;1.20;;
29218;SDS011;16421;50.202;7.852;2022-09-20T23:25:07;1.65;;;1.00;;
29218;SDS011;16421;50.202;7.852;2022-09-20T23:30:12;2.35;;;1.10;;
29218;SDS011;16421;50.202;7.852;2022-09-20T23:35:17;1.63;;;1.00;;
29218;SDS011;16421;50.202;7.852;2022-09-20T23:40:20;1.60;;;1.17;;
29218;SDS011;16421;50.202;7.852;2022-09-20T23:45:25;1.95;;;0.90;;
29218;SDS011;16421;50.202;7.852;2022-09-20T23:50:28;1.80;;;1.02;;
29218;SDS011;16421;50.202;7.852;2022-09-20T23:55:32;2.15;;;1.15;;
